createdAt,value
2023-05-14T00:02:05.587Z,2.60
2023-05-14T00:04:33.256Z,2.30
2023-05-14T00:07:02.226Z,2.63
2023-05-14T00:09:30.293Z,2.47
2023-05-14T00:11:57.861Z,2.25
2023-05-14T00:14:25.376Z,2.22
2023-05-14T00:16:52.892Z,2.50
2023-05-14T00:19:20.701Z,3.00
2023-05-14T00:21:48.284Z,2.70
2023-05-14T00:24:17.115Z,2.03
2023-05-14T00:26:44.720Z,3.33
2023-05-14T00:29:12.257Z,2.88
2023-05-14T00:31:39.853Z,2.45
2023-05-14T00:34:07.447Z,2.58
2023-05-14T00:36:34.991Z,2.47
2023-05-14T00:39:02.524Z,2.33
2023-05-14T00:41:31.368Z,2.35
2023-05-14T00:43:59.050Z,3.00
2023-05-14T00:46:26.886Z,3.03
2023-05-14T00:48:54.656Z,3.13
2023-05-14T00:51:23.186Z,2.60
2023-05-14T00:53:51.801Z,2.75
2023-05-14T00:56:19.917Z,2.97
2023-05-14T00:58:48.785Z,2.85
2023-05-14T01:01:16.629Z,2.70
2023-05-14T01:03:45.280Z,2.78
2023-05-14T01:06:19.623Z,2.63
2023-05-14T01:09:09.873Z,2.63
2023-05-14T01:11:43.174Z,3.55
2023-05-14T01:14:21.102Z,2.80
2023-05-14T01:19:24.215Z,2.38
2023-05-14T01:21:53.101Z,2.92
2023-05-14T01:24:20.672Z,2.80
2023-05-14T01:26:48.337Z,2.55
2023-05-14T01:29:21.014Z,3.13
2023-05-14T01:31:50.818Z,2.40
2023-05-14T01:34:22.065Z,3.25
2023-05-14T01:36:51.172Z,2.50
2023-05-14T01:39:20.825Z,3.30
2023-05-14T01:41:49.582Z,2.90
2023-05-14T01:44:18.450Z,3.28
2023-05-14T01:46:45.964Z,2.28
2023-05-14T01:49:13.635Z,3.00
2023-05-14T01:51:41.274Z,2.72
2023-05-14T01:54:08.816Z,2.63
2023-05-14T01:56:37.671Z,2.97
2023-05-14T01:59:05.261Z,3.13
2023-05-14T02:01:33.810Z,2.55
2023-05-14T02:04:01.992Z,2.78
2023-05-14T02:06:29.549Z,2.60
2023-05-14T02:08:57.045Z,2.47
2023-05-14T02:11:24.560Z,2.85
2023-05-14T02:13:53.453Z,3.20
2023-05-14T02:16:20.991Z,2.40
2023-05-14T02:18:48.516Z,2.83
2023-05-14T02:21:16.081Z,2.35
2023-05-14T02:23:44.171Z,2.70
2023-05-14T02:26:13.072Z,3.15
2023-05-14T02:28:40.678Z,2.88
2023-05-14T02:31:09.567Z,2.50
2023-05-14T02:33:37.178Z,2.63
2023-05-14T02:36:04.793Z,2.78
2023-05-14T02:38:32.347Z,2.45
2023-05-14T02:40:59.815Z,2.50
2023-05-14T02:43:27.351Z,3.30
2023-05-14T02:45:54.927Z,3.17
2023-05-14T02:48:23.831Z,2.83
2023-05-14T02:50:52.057Z,2.78
2023-05-14T02:53:19.666Z,2.97
2023-05-14T02:55:47.173Z,2.53
2023-05-14T02:58:14.974Z,2.83
2023-05-14T03:00:42.484Z,2.95
2023-05-14T03:03:10.366Z,3.05
2023-05-14T03:05:39.809Z,2.95
2023-05-14T03:08:07.570Z,2.63
2023-05-14T03:10:35.116Z,2.70
2023-05-14T03:13:02.643Z,2.90
2023-05-14T03:15:30.424Z,2.72
2023-05-14T03:17:57.968Z,2.63
2023-05-14T03:20:26.333Z,2.58
2023-05-14T03:22:56.031Z,2.67
2023-05-14T03:25:23.566Z,3.00
2023-05-14T03:27:51.072Z,2.65
2023-05-14T03:30:18.659Z,2.47
2023-05-14T03:32:46.467Z,2.85
2023-05-14T03:35:13.983Z,3.28
2023-05-14T03:37:41.452Z,3.00
2023-05-14T03:40:11.098Z,2.33
2023-05-14T03:42:38.563Z,2.42
2023-05-14T03:45:07.626Z,2.65
2023-05-14T03:47:35.153Z,2.70
2023-05-14T03:50:02.651Z,2.50
2023-05-14T03:52:30.547Z,2.65
2023-05-14T03:54:58.036Z,3.60
2023-05-14T03:57:26.874Z,2.58
2023-05-14T03:59:54.368Z,3.20
2023-05-14T04:02:21.958Z,2.83
2023-05-14T04:04:49.572Z,2.58
2023-05-14T04:07:17.134Z,2.67
2023-05-14T04:09:44.634Z,3.03
2023-05-14T04:12:12.186Z,2.70
2023-05-14T04:14:41.090Z,2.95
2023-05-14T04:17:08.590Z,2.80
2023-05-14T04:19:36.104Z,2.60
2023-05-14T04:22:03.988Z,3.20
2023-05-14T04:24:31.546Z,2.45
2023-05-14T04:26:59.076Z,2.28
2023-05-14T04:29:26.572Z,3.03
2023-05-14T04:31:55.977Z,2.67
2023-05-14T04:34:23.537Z,2.80
2023-05-14T04:36:51.759Z,2.67
2023-05-14T04:39:20.390Z,2.85
2023-05-14T04:41:47.876Z,2.55
2023-05-14T04:44:15.754Z,2.80
2023-05-14T04:46:43.244Z,2.70
2023-05-14T04:49:12.276Z,2.78
2023-05-14T04:51:39.813Z,2.83
2023-05-14T04:54:07.369Z,2.30
2023-05-14T04:56:34.902Z,2.55
2023-05-14T04:59:02.455Z,3.25
2023-05-14T05:01:30.074Z,3.17
2023-05-14T05:03:58.105Z,2.92
2023-05-14T05:06:27.013Z,3.30
2023-05-14T05:08:54.537Z,3.08
2023-05-14T05:11:22.054Z,3.08
2023-05-14T05:13:49.559Z,2.60
2023-05-14T05:16:17.301Z,3.20
2023-05-14T05:18:45.604Z,3.08
2023-05-14T05:21:13.152Z,3.25
2023-05-14T05:23:42.021Z,2.60
2023-05-14T05:26:09.746Z,2.80
2023-05-14T05:28:37.246Z,3.00
2023-05-14T05:31:05.007Z,2.90
2023-05-14T05:33:32.672Z,3.28
2023-05-14T05:36:00.203Z,3.08
2023-05-14T05:38:27.755Z,3.38
2023-05-14T05:40:56.694Z,3.08
2023-05-14T05:43:24.180Z,3.10
2023-05-14T05:45:51.700Z,2.92
2023-05-14T05:48:19.194Z,2.95
2023-05-14T05:50:48.977Z,2.92
2023-05-14T05:53:17.534Z,2.70
2023-05-14T05:55:45.044Z,3.53
2023-05-14T05:58:15.689Z,2.80
2023-05-14T06:00:43.218Z,3.10
2023-05-14T06:03:10.795Z,3.45
2023-05-14T06:05:38.430Z,2.88
2023-05-14T06:08:06.396Z,3.50
2023-05-14T06:10:34.716Z,2.97
2023-05-14T06:13:02.283Z,2.83
2023-05-14T06:15:31.248Z,3.20
2023-05-14T06:17:58.930Z,2.45
2023-05-14T06:20:26.622Z,2.92
2023-05-14T06:22:55.403Z,2.72
2023-05-14T06:25:23.060Z,2.55
2023-05-14T06:27:50.583Z,2.92
2023-05-14T06:30:18.130Z,2.80
2023-05-14T06:32:46.983Z,2.90
2023-05-14T06:35:14.518Z,2.53
2023-05-14T06:37:42.009Z,2.58
2023-05-14T06:40:10.666Z,2.95
2023-05-14T06:42:38.196Z,2.67
2023-05-14T06:45:06.733Z,3.17
2023-05-14T06:47:34.339Z,2.80
2023-05-14T06:50:03.261Z,2.50
2023-05-14T06:52:30.883Z,2.72
2023-05-14T06:54:58.418Z,3.17
2023-05-14T06:57:26.064Z,2.42
2023-05-14T06:59:53.536Z,3.38
2023-05-14T07:02:21.156Z,2.90
2023-05-14T07:04:49.031Z,3.25
2023-05-14T07:07:20.553Z,6.10
2023-05-14T07:09:48.228Z,5.47
2023-05-14T07:12:15.737Z,3.03
2023-05-14T07:14:43.240Z,2.83
2023-05-14T07:17:11.067Z,2.03
2023-05-14T07:19:38.617Z,4.32
2023-05-14T07:22:06.145Z,2.83
2023-05-14T07:24:35.160Z,6.25
2023-05-14T07:27:02.897Z,4.50
2023-05-14T07:29:31.053Z,4.65
2023-05-14T07:31:58.564Z,4.53
2023-05-14T07:34:26.099Z,4.63
2023-05-14T07:36:54.002Z,4.32
2023-05-14T07:39:22.672Z,4.35
2023-05-14T07:41:51.826Z,4.63
2023-05-14T07:44:19.436Z,3.58
2023-05-14T07:46:46.938Z,3.03
2023-05-14T07:49:14.425Z,5.10
2023-05-14T07:51:41.956Z,3.22
2023-05-14T07:54:09.537Z,4.40
2023-05-14T07:56:37.031Z,3.80
2023-05-14T07:59:06.989Z,4.15
2023-05-14T08:01:34.473Z,3.45
2023-05-14T08:04:02.182Z,3.38
2023-05-14T08:06:29.914Z,4.63
2023-05-14T08:08:57.426Z,3.00
2023-05-14T08:11:24.935Z,2.30
2023-05-14T08:13:52.492Z,3.05
2023-05-14T08:16:21.391Z,2.80
2023-05-14T08:18:49.520Z,3.10
2023-05-14T08:21:17.479Z,2.63
2023-05-14T08:23:45.445Z,2.60
2023-05-14T08:26:12.960Z,2.33
2023-05-14T08:28:40.519Z,2.78
2023-05-14T08:31:08.239Z,2.75
2023-05-14T08:33:37.184Z,2.33
2023-05-14T08:36:05.416Z,2.70
2023-05-14T08:38:33.079Z,3.45
2023-05-14T08:41:01.457Z,2.97
2023-05-14T08:43:35.362Z,3.28
2023-05-14T08:46:06.730Z,1.98
2023-05-14T08:48:36.038Z,3.78
2023-05-14T08:51:05.273Z,3.08
2023-05-14T08:53:32.854Z,3.25
2023-05-14T08:56:02.044Z,4.18
2023-05-14T08:58:29.829Z,9.98
2023-05-14T09:00:57.550Z,3.58
2023-05-14T09:03:25.376Z,2.80
2023-05-14T09:05:53.127Z,2.58
2023-05-14T09:08:22.233Z,2.08
2023-05-14T09:10:49.771Z,2.35
2023-05-14T09:13:17.327Z,2.03
2023-05-14T09:15:44.819Z,1.80
2023-05-14T09:18:12.579Z,2.20
2023-05-14T09:20:40.299Z,2.22
2023-05-14T09:23:07.878Z,1.90
2023-05-14T09:25:36.708Z,2.20
2023-05-14T09:28:09.382Z,2.00
2023-05-14T09:30:37.066Z,1.55
2023-05-14T09:33:04.967Z,2.05
2023-05-14T09:35:33.304Z,1.95
2023-05-14T09:38:00.847Z,4.95
2023-05-14T09:40:28.911Z,5.13
2023-05-14T09:42:58.164Z,6.00
2023-05-14T09:45:25.994Z,3.78
2023-05-14T09:47:53.777Z,3.53
2023-05-14T09:50:21.738Z,1.98
2023-05-14T09:52:49.416Z,2.28
2023-05-14T09:55:17.065Z,1.92
2023-05-14T09:57:44.980Z,2.00
2023-05-14T10:00:16.012Z,2.30
2023-05-14T10:02:45.839Z,3.35
2023-05-14T10:05:15.784Z,5.93
2023-05-14T10:07:48.280Z,2.83
2023-05-14T10:10:19.522Z,1.98
2023-05-14T10:12:52.308Z,1.92
2023-05-14T10:15:28.094Z,1.83
2023-05-14T10:17:59.710Z,1.30
2023-05-14T10:20:28.642Z,1.90
2023-05-14T10:22:57.199Z,2.40
2023-05-14T10:25:25.606Z,1.77
2023-05-14T10:27:53.880Z,2.20
2023-05-14T10:30:24.046Z,2.10
2023-05-14T10:33:06.927Z,1.73
2023-05-14T10:35:51.925Z,1.77
2023-05-14T10:38:23.859Z,2.00
2023-05-14T10:40:54.090Z,2.47
2023-05-14T10:43:24.233Z,2.10
2023-05-14T10:45:53.103Z,1.63
2023-05-14T10:48:21.281Z,1.27
2023-05-14T10:50:49.175Z,1.20
2023-05-14T10:53:16.715Z,1.67
2023-05-14T10:55:44.977Z,2.47
2023-05-14T10:58:13.489Z,1.92
2023-05-14T11:00:41.843Z,2.53
2023-05-14T11:03:13.028Z,2.20
2023-05-14T11:05:41.902Z,1.88
2023-05-14T11:08:10.041Z,2.45
2023-05-14T11:10:38.889Z,2.88
2023-05-14T11:13:07.031Z,3.03
2023-05-14T11:15:34.617Z,2.67
2023-05-14T11:18:02.218Z,1.92
2023-05-14T11:20:32.672Z,2.25
2023-05-14T11:23:00.262Z,3.20
2023-05-14T11:25:27.885Z,1.80
2023-05-14T11:27:58.583Z,2.35
2023-05-14T11:30:26.131Z,1.90
2023-05-14T11:32:54.283Z,2.63
2023-05-14T11:35:21.998Z,2.28
2023-05-14T11:37:54.015Z,2.13
2023-05-14T11:40:21.990Z,2.33
2023-05-14T11:42:52.001Z,2.85
2023-05-14T11:45:26.751Z,3.45
2023-05-14T11:47:54.782Z,3.92
2023-05-14T11:50:23.517Z,3.33
2023-05-14T11:52:52.038Z,5.20
2023-05-14T11:55:21.062Z,2.90
2023-05-14T11:57:48.832Z,2.67
2023-05-14T12:00:21.657Z,2.50
2023-05-14T12:02:50.462Z,2.33
2023-05-14T12:05:20.076Z,2.72
2023-05-14T12:07:48.227Z,2.60
2023-05-14T12:10:15.855Z,5.90
2023-05-14T12:12:46.922Z,4.03
2023-05-14T12:15:16.285Z,2.65
2023-05-14T12:17:44.280Z,1.88
2023-05-14T12:20:12.882Z,1.90
2023-05-14T12:22:42.614Z,1.73
2023-05-14T12:25:14.321Z,1.35
2023-05-14T12:30:21.220Z,1.00
2023-05-14T12:32:51.699Z,1.55
2023-05-14T12:35:19.917Z,1.20
2023-05-14T12:37:47.515Z,1.20
2023-05-14T12:40:15.170Z,0.95
2023-05-14T12:42:42.672Z,0.70
2023-05-14T12:45:12.689Z,0.80
2023-05-14T12:47:40.347Z,1.00
2023-05-14T12:50:08.857Z,1.15
2023-05-14T12:52:39.165Z,1.10
2023-05-14T12:55:08.116Z,1.00
2023-05-14T12:57:36.021Z,1.00
2023-05-14T13:00:06.849Z,0.95
2023-05-14T13:02:42.790Z,1.00
2023-05-14T13:05:11.671Z,1.20
2023-05-14T13:07:39.419Z,1.25
2023-05-14T13:10:08.074Z,1.38
2023-05-14T13:12:35.604Z,0.80
2023-05-14T13:15:03.154Z,1.23
2023-05-14T13:17:31.137Z,1.10
2023-05-14T13:20:00.172Z,1.40
2023-05-14T13:22:27.715Z,1.67
2023-05-14T13:24:55.221Z,2.20
2023-05-14T13:27:22.714Z,1.13
2023-05-14T13:29:50.228Z,1.40
2023-05-14T13:32:17.739Z,1.63
2023-05-14T13:34:45.245Z,1.20
2023-05-14T13:37:14.628Z,1.17
2023-05-14T13:39:42.130Z,1.40
2023-05-14T13:42:09.704Z,1.40
2023-05-14T13:44:37.262Z,1.45
2023-05-14T13:47:05.258Z,1.75
2023-05-14T13:49:32.771Z,1.90
2023-05-14T13:52:00.249Z,1.38
2023-05-14T13:54:29.134Z,1.20
2023-05-14T13:56:56.808Z,1.33
2023-05-14T13:59:24.561Z,2.80
2023-05-14T14:01:52.200Z,1.58
2023-05-14T14:04:19.908Z,1.77
2023-05-14T14:06:47.429Z,2.08
2023-05-14T14:09:14.985Z,2.40
2023-05-14T14:11:43.955Z,1.27
2023-05-14T14:14:11.483Z,1.55
2023-05-14T14:16:39.094Z,1.38
2023-05-14T14:19:07.412Z,1.65
2023-05-14T14:21:36.101Z,2.97
2023-05-14T14:24:03.702Z,1.42
2023-05-14T14:26:31.231Z,1.45
2023-05-14T14:29:00.051Z,1.17
2023-05-14T14:31:27.600Z,1.30
2023-05-14T14:33:55.114Z,1.25
2023-05-14T14:36:22.717Z,1.63
2023-05-14T14:38:50.339Z,1.00
2023-05-14T14:41:17.847Z,1.42
2023-05-14T14:43:45.401Z,1.20
2023-05-14T14:46:14.254Z,1.30
2023-05-14T14:48:41.805Z,1.92
2023-05-14T14:51:10.250Z,1.95
2023-05-14T14:53:37.895Z,1.75
2023-05-14T14:56:06.167Z,1.55
2023-05-14T14:58:33.852Z,1.65
2023-05-14T15:01:01.917Z,1.27
2023-05-14T15:03:31.277Z,1.30
2023-05-14T15:05:59.091Z,1.60
2023-05-14T15:08:27.796Z,1.60
2023-05-14T15:10:55.523Z,1.25
2023-05-14T15:13:23.270Z,1.45
2023-05-14T15:15:52.128Z,1.40
2023-05-14T15:18:19.674Z,1.63
2023-05-14T15:20:48.599Z,1.15
2023-05-14T15:23:16.130Z,1.25
2023-05-14T15:25:43.656Z,1.40
2023-05-14T15:28:11.242Z,2.70
2023-05-14T15:30:38.863Z,1.00
2023-05-14T15:33:08.516Z,1.42
2023-05-14T15:35:36.454Z,1.30
2023-05-14T15:38:05.423Z,1.85
2023-05-14T15:40:34.833Z,3.10
2023-05-14T15:43:02.686Z,1.52
2023-05-14T15:45:30.203Z,4.45
2023-05-14T15:47:57.880Z,3.10
2023-05-14T15:50:26.257Z,2.50
2023-05-14T15:52:54.384Z,1.00
2023-05-14T15:55:23.510Z,1.02
2023-05-14T15:57:51.113Z,1.00
2023-05-14T16:00:19.542Z,1.45
2023-05-14T16:02:47.180Z,1.17
2023-05-14T16:05:15.291Z,1.80
2023-05-14T16:07:43.306Z,1.60
2023-05-14T16:10:11.446Z,1.10
2023-05-14T16:12:40.387Z,1.10
2023-05-14T16:15:08.854Z,1.40
2023-05-14T16:17:36.457Z,1.30
2023-05-14T16:20:05.573Z,1.35
2023-05-14T16:22:34.611Z,6.25
2023-05-14T16:25:03.482Z,7.22
2023-05-14T16:27:31.453Z,2.85
2023-05-14T16:30:00.639Z,2.03
2023-05-14T16:32:28.229Z,1.13
2023-05-14T16:34:56.396Z,1.23
2023-05-14T16:37:24.053Z,1.45
2023-05-14T16:39:51.581Z,1.45
2023-05-14T16:42:19.150Z,1.35
2023-05-14T16:44:46.684Z,1.02
2023-05-14T16:47:15.633Z,1.27
2023-05-14T16:49:43.309Z,1.40
2023-05-14T16:52:10.955Z,1.42
2023-05-14T16:54:39.548Z,1.33
2023-05-14T16:57:07.092Z,0.98
2023-05-14T16:59:34.869Z,0.77
2023-05-14T17:02:02.657Z,0.77
2023-05-14T17:04:33.136Z,0.85
2023-05-14T17:07:01.431Z,0.90
2023-05-14T17:09:28.954Z,1.10
2023-05-14T17:11:56.608Z,0.70
2023-05-14T17:14:24.167Z,0.93
2023-05-14T17:16:51.687Z,1.10
2023-05-14T17:19:19.217Z,0.68
2023-05-14T17:21:48.117Z,0.75
2023-05-14T17:24:15.726Z,0.90
2023-05-14T17:26:43.258Z,0.93
2023-05-14T17:29:10.754Z,0.65
2023-05-14T17:31:38.334Z,0.75
2023-05-14T17:34:05.901Z,2.88
2023-05-14T17:36:33.444Z,5.03
2023-05-14T17:39:02.317Z,2.28
2023-05-14T17:41:29.806Z,1.08
2023-05-14T17:43:57.324Z,1.55
2023-05-14T17:46:24.919Z,0.90
2023-05-14T17:48:52.463Z,0.82
2023-05-14T17:51:19.973Z,0.93
2023-05-14T17:53:47.469Z,0.60
2023-05-14T17:56:18.306Z,0.77
2023-05-14T17:58:46.390Z,0.57
2023-05-14T18:01:14.053Z,0.90
2023-05-14T18:03:42.235Z,0.73
2023-05-14T18:06:09.897Z,1.10
2023-05-14T18:08:37.795Z,2.38
2023-05-14T18:11:05.386Z,1.98
2023-05-14T18:13:34.247Z,1.63
2023-05-14T18:16:01.863Z,1.17
2023-05-14T18:18:29.454Z,1.25
2023-05-14T18:20:57.100Z,0.65
2023-05-14T18:23:24.645Z,0.93
2023-05-14T18:25:52.218Z,0.57
2023-05-14T18:28:21.308Z,0.80
2023-05-14T18:30:50.345Z,1.08
2023-05-14T18:33:18.044Z,0.82
2023-05-14T18:35:45.684Z,0.57
2023-05-14T18:38:13.718Z,0.60
2023-05-14T18:40:43.824Z,0.63
2023-05-14T18:43:13.208Z,0.52
2023-05-14T18:45:40.843Z,0.80
2023-05-14T18:48:10.281Z,0.85
2023-05-14T18:50:39.407Z,0.82
2023-05-14T18:53:08.308Z,0.80
2023-05-14T18:55:36.317Z,0.95
2023-05-14T18:58:03.975Z,6.22
2023-05-14T19:00:31.467Z,5.50
2023-05-14T19:02:59.086Z,8.85
2023-05-14T19:05:27.993Z,0.77
2023-05-14T19:07:55.627Z,1.00
2023-05-14T19:10:23.170Z,0.82
2023-05-14T19:12:50.978Z,1.30
2023-05-14T19:15:18.595Z,1.00
2023-05-14T19:17:46.254Z,1.20
2023-05-14T19:20:13.940Z,1.10
2023-05-14T19:22:42.804Z,1.20
2023-05-14T19:25:11.508Z,15.55
2023-05-14T19:27:39.341Z,8.93
2023-05-14T19:30:08.043Z,3.90
2023-05-14T19:32:37.417Z,1.40
2023-05-14T19:35:05.581Z,1.15
2023-05-14T19:37:33.153Z,1.30
2023-05-14T19:40:02.067Z,0.90
2023-05-14T19:42:30.580Z,0.90
2023-05-14T19:44:58.133Z,0.70
2023-05-14T19:47:25.795Z,1.15
2023-05-14T19:49:53.326Z,0.90
2023-05-14T19:52:20.896Z,1.00
2023-05-14T19:54:48.432Z,1.05
2023-05-14T19:57:17.307Z,0.95
2023-05-14T19:59:45.033Z,1.05
2023-05-14T20:02:18.012Z,1.20
2023-05-14T20:04:45.966Z,4.28
2023-05-14T20:07:15.437Z,7.90
2023-05-14T20:09:43.209Z,9.98
2023-05-14T20:12:12.747Z,4.82
2023-05-14T20:14:41.755Z,10.57
2023-05-14T20:17:09.494Z,9.82
2023-05-14T20:19:37.082Z,3.47
2023-05-14T20:22:04.767Z,8.55
2023-05-14T20:24:32.368Z,5.53
2023-05-14T20:26:59.883Z,10.45
2023-05-14T20:29:27.347Z,4.38
2023-05-14T20:31:56.839Z,0.85
2023-05-14T20:34:24.551Z,1.00
2023-05-14T20:36:52.129Z,1.10
2023-05-14T20:39:19.695Z,1.05
2023-05-14T20:41:47.232Z,4.85
2023-05-14T20:44:14.814Z,4.75
2023-05-14T20:46:42.390Z,3.55
2023-05-14T20:49:11.342Z,1.60
2023-05-14T20:51:38.908Z,1.40
2023-05-14T20:54:06.540Z,1.35
2023-05-14T20:56:36.436Z,0.98
2023-05-14T20:59:03.970Z,1.40
2023-05-14T21:01:31.513Z,1.02
2023-05-14T21:03:59.262Z,1.15
2023-05-14T21:06:28.375Z,0.80
2023-05-14T21:08:55.916Z,0.95
2023-05-14T21:11:23.854Z,1.00
2023-05-14T21:13:51.384Z,0.80
2023-05-14T21:16:19.878Z,1.48
2023-05-14T21:18:47.458Z,1.20
2023-05-14T21:21:14.967Z,1.70
2023-05-14T21:23:43.848Z,1.02
2023-05-14T21:26:11.429Z,1.50
2023-05-14T21:28:38.964Z,1.05
2023-05-14T21:31:06.653Z,1.17
2023-05-14T21:33:34.238Z,1.08
2023-05-14T21:36:01.831Z,1.08
2023-05-14T21:38:29.462Z,1.67
2023-05-14T21:40:58.321Z,1.35
2023-05-14T21:43:25.870Z,1.67
2023-05-14T21:45:53.598Z,1.40
2023-05-14T21:48:21.427Z,1.20
2023-05-14T21:50:49.162Z,1.05
2023-05-14T21:53:16.864Z,2.10
2023-05-14T21:55:44.429Z,6.63
2023-05-14T21:58:13.405Z,2.15
2023-05-14T22:00:41.089Z,1.13
2023-05-14T22:03:08.720Z,0.98
2023-05-14T22:05:36.500Z,1.27
2023-05-14T22:08:04.030Z,1.33
2023-05-14T22:10:31.618Z,1.35
2023-05-14T22:12:59.149Z,0.93
2023-05-14T22:15:28.107Z,1.48
2023-05-14T22:17:55.747Z,1.13
2023-05-14T22:20:23.460Z,1.60
2023-05-14T22:22:51.449Z,0.95
2023-05-14T22:25:19.009Z,1.55
2023-05-14T22:27:46.556Z,1.20
2023-05-14T22:30:14.252Z,6.20
2023-05-14T22:32:43.292Z,9.48
2023-05-14T22:35:11.092Z,2.72
2023-05-14T22:37:38.742Z,1.08
2023-05-14T22:40:08.744Z,1.50
2023-05-14T22:42:36.407Z,1.27
2023-05-14T22:45:04.008Z,1.55
2023-05-14T22:47:31.827Z,1.35
2023-05-14T22:50:00.739Z,1.38
2023-05-14T22:52:28.319Z,0.95
2023-05-14T22:54:55.896Z,1.40
2023-05-14T22:57:23.484Z,1.25
2023-05-14T22:59:50.990Z,1.20
2023-05-14T23:02:18.517Z,1.15
2023-05-14T23:04:46.116Z,1.38
2023-05-14T23:07:15.209Z,1.30
2023-05-14T23:09:42.739Z,1.48
2023-05-14T23:12:10.631Z,1.02
2023-05-14T23:14:38.322Z,1.33
2023-05-14T23:17:06.878Z,1.40
2023-05-14T23:19:34.425Z,1.15
2023-05-14T23:22:01.992Z,1.17
2023-05-14T23:24:30.866Z,0.93
2023-05-14T23:26:58.429Z,0.95
2023-05-14T23:29:25.994Z,1.17
2023-05-14T23:31:53.593Z,1.23
2023-05-14T23:34:22.006Z,0.80
2023-05-14T23:36:49.629Z,1.00
2023-05-14T23:39:17.381Z,0.98
2023-05-14T23:41:46.293Z,1.13
2023-05-14T23:44:13.876Z,0.80
2023-05-14T23:46:41.440Z,0.90
2023-05-14T23:49:08.993Z,0.80
2023-05-14T23:51:37.670Z,0.73
2023-05-14T23:54:05.444Z,0.85
2023-05-14T23:56:33.572Z,0.90
2023-05-14T23:59:03.487Z,1.05
